LFSL

Toul Rosières Air Base

Airport
ICAO code
LFSL
IATA Code
BVE
Summary
ICAO Region
EUR
ICAO Territory
Location

, Lorraine

Serving
Brive
Elevation
936 ft
Coordinates
45° 9' 3" N , 1° 28' 9" E
Metar
Observation
LFSL 020030Z AUTO 35003KT 9999 OVC043 05/02 Q1019
Station
Toul / Rosieres
Date/Time
2022-12-02 00:30:00
Wind direction
350°
Wind speed
03 kts
Lowest cloud amount
overcast
Temperature
5°C
Dew point
2°C
Humidity
80%
QNH
1019 hPa
Weather condition
n/a

Airport map

Aerial View

SKYbrary Partners:

Safety knowledge contributed by: